sensor_id;sensor_type;location;lat;lon;timestamp;pressure;altitude;pressure_sealevel;temperature;humidity
75945;BME280;64628;50.104;14.614;2022-12-10T00:01:58;97487.34;;;3.39;49.29
75945;BME280;64628;50.104;14.614;2022-12-10T00:04:24;97488.24;;;3.45;49.04
75945;BME280;64628;50.104;14.614;2022-12-10T00:06:49;97485.47;;;3.44;49.15
75945;BME280;64628;50.104;14.614;2022-12-10T00:09:17;97487.71;;;3.41;49.17
75945;BME280;64628;50.104;14.614;2022-12-10T00:11:41;97489.38;;;3.18;49.52
75945;BME280;64628;50.104;14.614;2022-12-10T00:14:06;97489.77;;;3.24;49.30
75945;BME280;64628;50.104;14.614;2022-12-10T00:16:31;97494.57;;;3.37;49.48
75945;BME280;64628;50.104;14.614;2022-12-10T00:18:57;97492.02;;;3.43;49.45
75945;BME280;64628;50.104;14.614;2022-12-10T00:21:25;97494.82;;;2.83;49.65
75945;BME280;64628;50.104;14.614;2022-12-10T00:23:48;97500.63;;;3.30;49.79
75945;BME280;64628;50.104;14.614;2022-12-10T00:26:16;97504.62;;;3.66;49.33
75945;BME280;64628;50.104;14.614;2022-12-10T00:28:40;97506.99;;;3.15;49.10
75945;BME280;64628;50.104;14.614;2022-12-10T00:31:06;97507.37;;;3.54;49.31
75945;BME280;64628;50.104;14.614;2022-12-10T00:33:30;97511.43;;;3.35;49.37
75945;BME280;64628;50.104;14.614;2022-12-10T00:35:56;97511.68;;;3.25;49.45
75945;BME280;64628;50.104;14.614;2022-12-10T00:38:21;97506.27;;;2.97;49.64
75945;BME280;64628;50.104;14.614;2022-12-10T00:40:46;97507.66;;;3.16;50.04
75945;BME280;64628;50.104;14.614;2022-12-10T00:43:11;97505.06;;;3.30;49.85
75945;BME280;64628;50.104;14.614;2022-12-10T00:45:37;97507.57;;;3.28;49.75
75945;BME280;64628;50.104;14.614;2022-12-10T00:48:02;97508.71;;;3.25;49.92
75945;BME280;64628;50.104;14.614;2022-12-10T00:50:27;97511.89;;;3.41;49.72
75945;BME280;64628;50.104;14.614;2022-12-10T00:52:53;97515.66;;;3.51;49.40
75945;BME280;64628;50.104;14.614;2022-12-10T00:55:19;97518.43;;;3.44;49.34
75945;BME280;64628;50.104;14.614;2022-12-10T00:57:44;97518.63;;;3.19;49.43
75945;BME280;64628;50.104;14.614;2022-12-10T01:00:12;97516.57;;;3.38;49.75
75945;BME280;64628;50.104;14.614;2022-12-10T01:02:35;97517.62;;;3.43;49.58
75945;BME280;64628;50.104;14.614;2022-12-10T01:05:01;97515.43;;;3.40;49.58
75945;BME280;64628;50.104;14.614;2022-12-10T01:07:27;97517.49;;;3.15;49.75
75945;BME280;64628;50.104;14.614;2022-12-10T01:09:52;97518.21;;;3.22;49.47
75945;BME280;64628;50.104;14.614;2022-12-10T01:12:18;97520.43;;;3.48;49.48
75945;BME280;64628;50.104;14.614;2022-12-10T01:14:43;97522.72;;;3.49;49.65
75945;BME280;64628;50.104;14.614;2022-12-10T01:17:08;97522.79;;;3.13;49.86
75945;BME280;64628;50.104;14.614;2022-12-10T01:19:34;97522.51;;;3.09;50.06
75945;BME280;64628;50.104;14.614;2022-12-10T01:21:59;97524.81;;;3.13;50.19
75945;BME280;64628;50.104;14.614;2022-12-10T01:24:26;97527.81;;;3.20;50.21
75945;BME280;64628;50.104;14.614;2022-12-10T01:26:50;97525.28;;;2.94;49.76
75945;BME280;64628;50.104;14.614;2022-12-10T01:29:15;97523.61;;;3.43;49.50
75945;BME280;64628;50.104;14.614;2022-12-10T01:31:41;97523.95;;;3.10;49.79
75945;BME280;64628;50.104;14.614;2022-12-10T01:34:10;97526.97;;;3.30;49.88
75945;BME280;64628;50.104;14.614;2022-12-10T01:36:33;97527.74;;;3.09;49.64
75945;BME280;64628;50.104;14.614;2022-12-10T01:38:58;97528.46;;;3.11;50.12
75945;BME280;64628;50.104;14.614;2022-12-10T01:41:25;97525.77;;;3.23;49.92
75945;BME280;64628;50.104;14.614;2022-12-10T01:43:52;97528.47;;;3.20;50.08
75945;BME280;64628;50.104;14.614;2022-12-10T01:46:13;97530.52;;;3.22;50.15
75945;BME280;64628;50.104;14.614;2022-12-10T01:48:39;97532.74;;;3.29;50.18
75945;BME280;64628;50.104;14.614;2022-12-10T01:51:05;97533.04;;;3.26;50.18
75945;BME280;64628;50.104;14.614;2022-12-10T01:53:30;97530.54;;;3.12;50.01
75945;BME280;64628;50.104;14.614;2022-12-10T01:55:55;97533.75;;;3.36;49.93
75945;BME280;64628;50.104;14.614;2022-12-10T01:58:21;97533.60;;;3.02;49.78
75945;BME280;64628;50.104;14.614;2022-12-10T02:00:57;97534.95;;;3.33;49.89
75945;BME280;64628;50.104;14.614;2022-12-10T02:03:15;97533.63;;;3.06;50.04
75945;BME280;64628;50.104;14.614;2022-12-10T02:05:41;97532.04;;;3.19;49.83
75945;BME280;64628;50.104;14.614;2022-12-10T02:08:08;97530.38;;;3.23;49.71
75945;BME280;64628;50.104;14.614;2022-12-10T02:10:38;97531.23;;;3.30;49.83
75945;BME280;64628;50.104;14.614;2022-12-10T02:12:56;97530.58;;;3.20;49.80
75945;BME280;64628;50.104;14.614;2022-12-10T02:15:21;97529.28;;;3.14;49.95
75945;BME280;64628;50.104;14.614;2022-12-10T02:17:46;97532.57;;;3.11;49.53
75945;BME280;64628;50.104;14.614;2022-12-10T02:20:14;97533.53;;;3.57;49.42
75945;BME280;64628;50.104;14.614;2022-12-10T02:22:39;97531.21;;;3.54;49.59
75945;BME280;64628;50.104;14.614;2022-12-10T02:25:02;97529.31;;;3.33;49.39
75945;BME280;64628;50.104;14.614;2022-12-10T02:27:32;97527.86;;;3.68;49.10
75945;BME280;64628;50.104;14.614;2022-12-10T02:29:53;97532.03;;;3.43;49.44
75945;BME280;64628;50.104;14.614;2022-12-10T02:32:21;97532.70;;;3.33;49.43
75945;BME280;64628;50.104;14.614;2022-12-10T02:34:47;97534.67;;;3.69;49.45
75945;BME280;64628;50.104;14.614;2022-12-10T02:37:11;97537.22;;;3.82;49.00
75945;BME280;64628;50.104;14.614;2022-12-10T02:39:37;97542.19;;;3.48;49.11
75945;BME280;64628;50.104;14.614;2022-12-10T02:42:00;97546.25;;;3.39;49.30
75945;BME280;64628;50.104;14.614;2022-12-10T02:44:26;97551.22;;;3.29;49.36
75945;BME280;64628;50.104;14.614;2022-12-10T02:46:53;97548.21;;;3.51;49.65
75945;BME280;64628;50.104;14.614;2022-12-10T02:49:18;97547.31;;;3.37;49.58
75945;BME280;64628;50.104;14.614;2022-12-10T02:51:42;97548.36;;;3.37;49.64
75945;BME280;64628;50.104;14.614;2022-12-10T02:56:36;97546.41;;;3.64;49.80
75945;BME280;64628;50.104;14.614;2022-12-10T02:59:06;97550.83;;;3.29;49.44
75945;BME280;64628;50.104;14.614;2022-12-10T03:01:31;97551.68;;;3.57;49.19
75945;BME280;64628;50.104;14.614;2022-12-10T03:03:54;97553.97;;;3.60;49.04
75945;BME280;64628;50.104;14.614;2022-12-10T03:06:19;97554.17;;;3.49;49.42
75945;BME280;64628;50.104;14.614;2022-12-10T03:08:46;97557.42;;;3.72;49.44
75945;BME280;64628;50.104;14.614;2022-12-10T03:11:11;97562.97;;;3.97;48.77
75945;BME280;64628;50.104;14.614;2022-12-10T03:13:35;97565.64;;;3.49;48.84
75945;BME280;64628;50.104;14.614;2022-12-10T03:15:57;97569.51;;;3.58;49.17
75945;BME280;64628;50.104;14.614;2022-12-10T03:18:23;97571.29;;;3.34;49.39
75945;BME280;64628;50.104;14.614;2022-12-10T03:20:47;97574.62;;;3.67;48.96
75945;BME280;64628;50.104;14.614;2022-12-10T03:23:16;97573.98;;;3.81;49.59
75945;BME280;64628;50.104;14.614;2022-12-10T03:25:38;97573.69;;;3.69;49.20
75945;BME280;64628;50.104;14.614;2022-12-10T03:28:03;97574.28;;;3.38;49.25
75945;BME280;64628;50.104;14.614;2022-12-10T03:30:30;97579.00;;;3.66;49.05
75945;BME280;64628;50.104;14.614;2022-12-10T03:32:53;97578.87;;;3.69;48.97
75945;BME280;64628;50.104;14.614;2022-12-10T03:35:20;97575.00;;;3.68;48.92
75945;BME280;64628;50.104;14.614;2022-12-10T03:37:45;97576.98;;;3.96;48.74
75945;BME280;64628;50.104;14.614;2022-12-10T03:40:11;97576.29;;;3.31;49.06
75945;BME280;64628;50.104;14.614;2022-12-10T03:42:36;97571.44;;;3.48;49.11
75945;BME280;64628;50.104;14.614;2022-12-10T03:45:01;97569.25;;;3.65;49.31
75945;BME280;64628;50.104;14.614;2022-12-10T03:47:27;97569.62;;;3.43;49.48
75945;BME280;64628;50.104;14.614;2022-12-10T03:49:52;97570.79;;;3.41;49.49
75945;BME280;64628;50.104;14.614;2022-12-10T03:52:18;97564.99;;;3.69;49.42
75945;BME280;64628;50.104;14.614;2022-12-10T03:54:43;97566.63;;;3.19;49.61
75945;BME280;64628;50.104;14.614;2022-12-10T03:57:08;97570.06;;;3.48;49.31
75945;BME280;64628;50.104;14.614;2022-12-10T03:59:34;97568.75;;;3.53;49.42
75945;BME280;64628;50.104;14.614;2022-12-10T04:02:00;97568.72;;;3.28;49.31
75945;BME280;64628;50.104;14.614;2022-12-10T04:04:25;97569.56;;;3.54;49.53
75945;BME280;64628;50.104;14.614;2022-12-10T04:06:51;97567.10;;;3.20;49.62
75945;BME280;64628;50.104;14.614;2022-12-10T04:09:16;97563.53;;;3.22;49.45
75945;BME280;64628;50.104;14.614;2022-12-10T04:11:42;97561.28;;;3.65;49.37
75945;BME280;64628;50.104;14.614;2022-12-10T04:14:08;97560.31;;;3.18;49.64
75945;BME280;64628;50.104;14.614;2022-12-10T04:16:34;97560.75;;;3.42;49.59
75945;BME280;64628;50.104;14.614;2022-12-10T04:19:01;97556.46;;;3.66;49.66
75945;BME280;64628;50.104;14.614;2022-12-10T04:21:24;97560.04;;;3.41;49.67
75945;BME280;64628;50.104;14.614;2022-12-10T04:23:50;97561.73;;;3.40;49.77
75945;BME280;64628;50.104;14.614;2022-12-10T04:26:16;97565.07;;;3.17;49.70
75945;BME280;64628;50.104;14.614;2022-12-10T04:28:41;97560.48;;;3.21;49.97
75945;BME280;64628;50.104;14.614;2022-12-10T04:31:06;97553.82;;;3.53;49.80
75945;BME280;64628;50.104;14.614;2022-12-10T04:33:32;97548.31;;;3.31;50.35
75945;BME280;64628;50.104;14.614;2022-12-10T04:35:57;97547.77;;;3.26;50.00
75945;BME280;64628;50.104;14.614;2022-12-10T04:38:23;97545.74;;;3.40;49.77
75945;BME280;64628;50.104;14.614;2022-12-10T04:40:48;97542.34;;;3.37;50.03
75945;BME280;64628;50.104;14.614;2022-12-10T04:43:14;97545.45;;;3.46;50.03
75945;BME280;64628;50.104;14.614;2022-12-10T04:45:39;97547.47;;;3.49;50.21
75945;BME280;64628;50.104;14.614;2022-12-10T04:48:05;97549.08;;;3.14;50.25
75945;BME280;64628;50.104;14.614;2022-12-10T04:50:30;97549.98;;;3.16;50.41
75945;BME280;64628;50.104;14.614;2022-12-10T04:52:56;97557.37;;;3.43;50.27
75945;BME280;64628;50.104;14.614;2022-12-10T04:55:22;97556.28;;;3.36;50.52
75945;BME280;64628;50.104;14.614;2022-12-10T04:57:48;97556.06;;;3.39;50.34
75945;BME280;64628;50.104;14.614;2022-12-10T05:00:13;97554.23;;;3.35;50.52
75945;BME280;64628;50.104;14.614;2022-12-10T05:02:38;97550.59;;;3.05;50.53
75945;BME280;64628;50.104;14.614;2022-12-10T05:05:04;97547.60;;;3.42;50.53
75945;BME280;64628;50.104;14.614;2022-12-10T05:07:29;97545.52;;;3.30;50.56
75945;BME280;64628;50.104;14.614;2022-12-10T05:09:54;97543.52;;;3.33;50.48
75945;BME280;64628;50.104;14.614;2022-12-10T05:12:19;97541.01;;;3.26;50.53
75945;BME280;64628;50.104;14.614;2022-12-10T05:14:45;97537.10;;;3.23;50.72
75945;BME280;64628;50.104;14.614;2022-12-10T05:17:10;97534.86;;;3.09;51.08
75945;BME280;64628;50.104;14.614;2022-12-10T05:19:36;97537.76;;;3.15;51.00
75945;BME280;64628;50.104;14.614;2022-12-10T05:22:02;97540.29;;;2.92;50.94
75945;BME280;64628;50.104;14.614;2022-12-10T05:24:27;97543.21;;;2.98;51.19
75945;BME280;64628;50.104;14.614;2022-12-10T05:26:53;97545.91;;;3.15;50.96
75945;BME280;64628;50.104;14.614;2022-12-10T05:29:19;97550.21;;;3.23;50.82
75945;BME280;64628;50.104;14.614;2022-12-10T05:31:43;97552.17;;;3.17;51.04
75945;BME280;64628;50.104;14.614;2022-12-10T05:34:10;97550.96;;;3.26;50.67
75945;BME280;64628;50.104;14.614;2022-12-10T05:36:35;97552.34;;;2.65;50.99
75945;BME280;64628;50.104;14.614;2022-12-10T05:39:00;97552.27;;;3.10;51.09
75945;BME280;64628;50.104;14.614;2022-12-10T05:41:29;97552.75;;;3.14;50.88
75945;BME280;64628;50.104;14.614;2022-12-10T05:43:54;97553.70;;;2.88;51.09
75945;BME280;64628;50.104;14.614;2022-12-10T05:46:20;97550.72;;;3.17;50.90
75945;BME280;64628;50.104;14.614;2022-12-10T05:48:44;97551.92;;;2.84;51.23
75945;BME280;64628;50.104;14.614;2022-12-10T05:51:11;97552.39;;;3.03;51.12
75945;BME280;64628;50.104;14.614;2022-12-10T05:53:35;97550.17;;;2.95;51.44
75945;BME280;64628;50.104;14.614;2022-12-10T05:56:01;97552.59;;;2.73;51.43
75945;BME280;64628;50.104;14.614;2022-12-10T05:58:27;97559.09;;;2.80;51.81
75945;BME280;64628;50.104;14.614;2022-12-10T06:00:51;97560.20;;;2.88;51.58
75945;BME280;64628;50.104;14.614;2022-12-10T06:03:16;97567.23;;;2.87;51.63
75945;BME280;64628;50.104;14.614;2022-12-10T06:05:42;97572.31;;;3.06;51.77
75945;BME280;64628;50.104;14.614;2022-12-10T06:08:08;97575.64;;;3.45;51.49
75945;BME280;64628;50.104;14.614;2022-12-10T06:10:34;97578.69;;;2.96;51.52
75945;BME280;64628;50.104;14.614;2022-12-10T06:12:59;97582.99;;;3.13;51.19
75945;BME280;64628;50.104;14.614;2022-12-10T06:15:25;97585.15;;;3.10;51.09
75945;BME280;64628;50.104;14.614;2022-12-10T06:17:50;97591.02;;;3.10;51.21
75945;BME280;64628;50.104;14.614;2022-12-10T06:20:16;97594.08;;;2.98;51.31
75945;BME280;64628;50.104;14.614;2022-12-10T06:22:41;97594.76;;;2.87;51.54
75945;BME280;64628;50.104;14.614;2022-12-10T06:25:07;97595.90;;;2.87;51.50
75945;BME280;64628;50.104;14.614;2022-12-10T06:27:32;97593.39;;;2.86;51.59
75945;BME280;64628;50.104;14.614;2022-12-10T06:29:57;97596.72;;;2.76;51.32
75945;BME280;64628;50.104;14.614;2022-12-10T06:32:22;97595.95;;;2.81;51.16
75945;BME280;64628;50.104;14.614;2022-12-10T06:34:48;97596.26;;;3.23;50.91
75945;BME280;64628;50.104;14.614;2022-12-10T06:37:13;97595.49;;;3.08;50.71
75945;BME280;64628;50.104;14.614;2022-12-10T06:39:38;97598.68;;;3.12;50.75
75945;BME280;64628;50.104;14.614;2022-12-10T06:42:03;97604.49;;;3.38;50.88
75945;BME280;64628;50.104;14.614;2022-12-10T06:44:29;97603.53;;;3.57;50.48
75945;BME280;64628;50.104;14.614;2022-12-10T06:46:54;97604.08;;;3.55;50.15
75945;BME280;64628;50.104;14.614;2022-12-10T06:49:20;97600.69;;;3.42;50.60
75945;BME280;64628;50.104;14.614;2022-12-10T06:51:47;97599.29;;;3.07;50.23
75945;BME280;64628;50.104;14.614;2022-12-10T06:54:11;97593.74;;;3.56;50.32
75945;BME280;64628;50.104;14.614;2022-12-10T06:56:36;97591.25;;;3.63;50.15
75945;BME280;64628;50.104;14.614;2022-12-10T06:59:04;97591.17;;;3.41;50.16
75945;BME280;64628;50.104;14.614;2022-12-10T07:01:28;97591.07;;;3.37;49.98
75945;BME280;64628;50.104;14.614;2022-12-10T07:03:55;97595.81;;;3.37;50.05
75945;BME280;64628;50.104;14.614;2022-12-10T07:06:20;97597.48;;;3.33;50.13
75945;BME280;64628;50.104;14.614;2022-12-10T07:08:44;97596.19;;;3.49;50.38
75945;BME280;64628;50.104;14.614;2022-12-10T07:11:11;97597.67;;;3.24;50.49
75945;BME280;64628;50.104;14.614;2022-12-10T07:13:36;97604.69;;;3.11;50.78
75945;BME280;64628;50.104;14.614;2022-12-10T07:16:00;97609.23;;;3.20;50.63
75945;BME280;64628;50.104;14.614;2022-12-10T07:18:26;97609.00;;;3.10;50.37
75945;BME280;64628;50.104;14.614;2022-12-10T07:20:51;97612.16;;;3.43;50.01
75945;BME280;64628;50.104;14.614;2022-12-10T07:23:17;97611.72;;;3.68;50.03
75945;BME280;64628;50.104;14.614;2022-12-10T07:25:42;97613.71;;;3.32;50.20
75945;BME280;64628;50.104;14.614;2022-12-10T07:28:07;97613.14;;;3.40;50.24
75945;BME280;64628;50.104;14.614;2022-12-10T07:30:33;97613.13;;;3.68;49.98
75945;BME280;64628;50.104;14.614;2022-12-10T07:32:58;97612.41;;;3.39;50.15
75945;BME280;64628;50.104;14.614;2022-12-10T07:35:24;97609.48;;;3.48;50.12
75945;BME280;64628;50.104;14.614;2022-12-10T07:37:50;97609.95;;;3.65;49.67
75945;BME280;64628;50.104;14.614;2022-12-10T07:40:15;97612.82;;;3.32;49.98
75945;BME280;64628;50.104;14.614;2022-12-10T07:42:40;97612.55;;;3.89;49.62
75945;BME280;64628;50.104;14.614;2022-12-10T07:45:07;97613.51;;;3.56;49.94
75945;BME280;64628;50.104;14.614;2022-12-10T07:47:31;97617.70;;;3.46;50.00
75945;BME280;64628;50.104;14.614;2022-12-10T07:49:57;97621.63;;;3.54;50.50
75945;BME280;64628;50.104;14.614;2022-12-10T07:52:22;97626.62;;;3.38;49.97
75945;BME280;64628;50.104;14.614;2022-12-10T07:54:48;97629.97;;;3.47;50.04
75945;BME280;64628;50.104;14.614;2022-12-10T07:57:14;97635.18;;;3.60;50.07
75945;BME280;64628;50.104;14.614;2022-12-10T07:59:39;97640.59;;;3.47;50.15
75945;BME280;64628;50.104;14.614;2022-12-10T08:02:05;97644.68;;;3.63;50.03
75945;BME280;64628;50.104;14.614;2022-12-10T08:04:30;97645.95;;;3.95;49.84
75945;BME280;64628;50.104;14.614;2022-12-10T08:06:56;97648.31;;;3.59;49.56
75945;BME280;64628;50.104;14.614;2022-12-10T08:09:20;97647.80;;;3.68;49.91
75945;BME280;64628;50.104;14.614;2022-12-10T08:11:47;97656.02;;;3.88;49.74
75945;BME280;64628;50.104;14.614;2022-12-10T08:14:12;97663.05;;;3.88;49.28
75945;BME280;64628;50.104;14.614;2022-12-10T08:16:37;97662.64;;;3.82;49.02
75945;BME280;64628;50.104;14.614;2022-12-10T08:19:03;97666.61;;;3.90;48.94
75945;BME280;64628;50.104;14.614;2022-12-10T08:21:30;97666.35;;;3.87;48.94
75945;BME280;64628;50.104;14.614;2022-12-10T08:23:54;97668.63;;;3.81;48.77
75945;BME280;64628;50.104;14.614;2022-12-10T08:26:21;97671.83;;;3.80;49.08
75945;BME280;64628;50.104;14.614;2022-12-10T08:28:44;97673.76;;;3.78;49.25
75945;BME280;64628;50.104;14.614;2022-12-10T08:31:11;97676.52;;;3.85;49.08
75945;BME280;64628;50.104;14.614;2022-12-10T08:33:35;97676.16;;;3.75;49.04
75945;BME280;64628;50.104;14.614;2022-12-10T08:36:00;97679.89;;;3.92;48.87
75945;BME280;64628;50.104;14.614;2022-12-10T08:38:25;97682.07;;;4.03;48.79
75945;BME280;64628;50.104;14.614;2022-12-10T08:40:50;97677.71;;;3.92;48.64
75945;BME280;64628;50.104;14.614;2022-12-10T08:43:16;97676.14;;;3.87;48.82
75945;BME280;64628;50.104;14.614;2022-12-10T08:45:41;97679.12;;;4.17;48.69
75945;BME280;64628;50.104;14.614;2022-12-10T08:48:06;97680.05;;;3.93;49.12
75945;BME280;64628;50.104;14.614;2022-12-10T08:50:32;97677.98;;;3.83;49.23
75945;BME280;64628;50.104;14.614;2022-12-10T08:52:57;97678.95;;;4.02;49.20
75945;BME280;64628;50.104;14.614;2022-12-10T08:55:22;97684.96;;;4.05;48.94
75945;BME280;64628;50.104;14.614;2022-12-10T08:57:48;97676.98;;;4.18;48.76
75945;BME280;64628;50.104;14.614;2022-12-10T09:00:14;97675.12;;;3.87;48.73
75945;BME280;64628;50.104;14.614;2022-12-10T09:02:38;97678.87;;;3.98;48.89
75945;BME280;64628;50.104;14.614;2022-12-10T09:05:04;97681.45;;;4.33;48.55
75945;BME280;64628;50.104;14.614;2022-12-10T09:07:29;97677.47;;;4.03;48.56
75945;BME280;64628;50.104;14.614;2022-12-10T09:09:54;97668.74;;;3.85;48.85
75945;BME280;64628;50.104;14.614;2022-12-10T09:12:19;97663.61;;;3.89;49.06
75945;BME280;64628;50.104;14.614;2022-12-10T09:14:45;97657.30;;;4.08;49.29
75945;BME280;64628;50.104;14.614;2022-12-10T09:17:11;97656.67;;;3.96;48.89
75945;BME280;64628;50.104;14.614;2022-12-10T09:19:37;97654.02;;;4.17;48.99
75945;BME280;64628;50.104;14.614;2022-12-10T09:22:03;97647.65;;;4.25;48.66
75945;BME280;64628;50.104;14.614;2022-12-10T09:24:27;97646.21;;;4.15;48.75
75945;BME280;64628;50.104;14.614;2022-12-10T09:26:53;97642.75;;;4.39;48.42
75945;BME280;64628;50.104;14.614;2022-12-10T09:29:19;97649.28;;;4.47;48.58
75945;BME280;64628;50.104;14.614;2022-12-10T09:31:44;97660.61;;;4.60;47.74
75945;BME280;64628;50.104;14.614;2022-12-10T09:34:10;97663.82;;;4.65;47.90
75945;BME280;64628;50.104;14.614;2022-12-10T09:36:35;97662.64;;;4.57;47.87
75945;BME280;64628;50.104;14.614;2022-12-10T09:39:01;97660.58;;;5.01;47.65
75945;BME280;64628;50.104;14.614;2022-12-10T09:41:37;97655.74;;;4.55;47.71
75945;BME280;64628;50.104;14.614;2022-12-10T09:43:57;97652.39;;;4.45;47.76
75945;BME280;64628;50.104;14.614;2022-12-10T09:46:21;97654.81;;;4.94;47.85
75945;BME280;64628;50.104;14.614;2022-12-10T09:48:52;97659.44;;;4.54;47.89
75945;BME280;64628;50.104;14.614;2022-12-10T09:51:12;97655.46;;;4.57;47.33
75945;BME280;64628;50.104;14.614;2022-12-10T09:53:36;97640.76;;;4.70;47.46
75945;BME280;64628;50.104;14.614;2022-12-10T09:55:59;97627.82;;;4.67;48.33
75945;BME280;64628;50.104;14.614;2022-12-10T09:58:26;97625.63;;;4.37;47.63
75945;BME280;64628;50.104;14.614;2022-12-10T10:00:54;97625.26;;;4.78;48.01
75945;BME280;64628;50.104;14.614;2022-12-10T10:03:17;97623.14;;;4.99;47.53
75945;BME280;64628;50.104;14.614;2022-12-10T10:05:45;97626.55;;;5.04;47.28
75945;BME280;64628;50.104;14.614;2022-12-10T10:08:14;97628.02;;;4.92;47.07
75945;BME280;64628;50.104;14.614;2022-12-10T10:10:35;97626.19;;;5.12;46.66
75945;BME280;64628;50.104;14.614;2022-12-10T10:13:01;97626.82;;;4.81;47.14
75945;BME280;64628;50.104;14.614;2022-12-10T10:15:33;97628.44;;;4.96;46.88
75945;BME280;64628;50.104;14.614;2022-12-10T10:17:53;97627.65;;;5.08;46.39
75945;BME280;64628;50.104;14.614;2022-12-10T10:20:16;97628.55;;;4.94;46.76
75945;BME280;64628;50.104;14.614;2022-12-10T10:22:41;97627.11;;;4.90;46.49
75945;BME280;64628;50.104;14.614;2022-12-10T10:25:14;97625.29;;;4.94;46.67
75945;BME280;64628;50.104;14.614;2022-12-10T10:27:38;97626.72;;;4.87;46.28
75945;BME280;64628;50.104;14.614;2022-12-10T10:29:59;97628.97;;;5.05;46.47
75945;BME280;64628;50.104;14.614;2022-12-10T10:32:25;97635.72;;;4.72;46.71
75945;BME280;64628;50.104;14.614;2022-12-10T10:34:53;97630.51;;;5.27;46.37
75945;BME280;64628;50.104;14.614;2022-12-10T10:37:23;97632.84;;;4.93;46.51
75945;BME280;64628;50.104;14.614;2022-12-10T10:39:40;97638.23;;;4.93;46.57
75945;BME280;64628;50.104;14.614;2022-12-10T10:42:09;97641.47;;;5.09;46.57
75945;BME280;64628;50.104;14.614;2022-12-10T10:44:35;97638.90;;;4.33;47.13
75945;BME280;64628;50.104;14.614;2022-12-10T10:46:56;97633.90;;;4.22;47.68
75945;BME280;64628;50.104;14.614;2022-12-10T10:49:24;97630.16;;;4.73;47.63
75945;BME280;64628;50.104;14.614;2022-12-10T10:51:47;97625.56;;;4.62;47.20
75945;BME280;64628;50.104;14.614;2022-12-10T10:56:41;97619.69;;;4.84;47.16
75945;BME280;64628;50.104;14.614;2022-12-10T10:59:06;97628.14;;;4.84;47.32
75945;BME280;64628;50.104;14.614;2022-12-10T11:03:57;97628.74;;;5.01;46.70
75945;BME280;64628;50.104;14.614;2022-12-10T11:06:20;97625.15;;;4.76;47.12
75945;BME280;64628;50.104;14.614;2022-12-10T11:08:47;97625.97;;;4.47;47.02
75945;BME280;64628;50.104;14.614;2022-12-10T11:11:12;97624.82;;;4.61;47.57
75945;BME280;64628;50.104;14.614;2022-12-10T11:13:38;97631.41;;;4.67;47.74
75945;BME280;64628;50.104;14.614;2022-12-10T11:16:12;97640.28;;;4.55;47.39
75945;BME280;64628;50.104;14.614;2022-12-10T11:18:32;97645.64;;;4.91;47.14
75945;BME280;64628;50.104;14.614;2022-12-10T11:20:59;97643.74;;;4.42;46.88
75945;BME280;64628;50.104;14.614;2022-12-10T11:23:20;97645.87;;;4.94;46.81
75945;BME280;64628;50.104;14.614;2022-12-10T11:25:49;97646.84;;;4.75;46.97
75945;BME280;64628;50.104;14.614;2022-12-10T11:28:19;97645.83;;;4.56;46.73
75945;BME280;64628;50.104;14.614;2022-12-10T11:30:40;97638.72;;;5.06;46.96
75945;BME280;64628;50.104;14.614;2022-12-10T11:33:14;97636.57;;;5.01;46.86
75945;BME280;64628;50.104;14.614;2022-12-10T11:35:35;97633.58;;;4.66;46.81
75945;BME280;64628;50.104;14.614;2022-12-10T11:37:59;97635.03;;;4.79;46.86
75945;BME280;64628;50.104;14.614;2022-12-10T11:40:29;97636.54;;;4.64;46.84
75945;BME280;64628;50.104;14.614;2022-12-10T11:42:51;97634.68;;;4.90;46.80
75945;BME280;64628;50.104;14.614;2022-12-10T11:45:15;97637.02;;;5.01;46.21
75945;BME280;64628;50.104;14.614;2022-12-10T11:47:44;97632.10;;;4.84;46.12
75945;BME280;64628;50.104;14.614;2022-12-10T11:50:08;97626.31;;;4.85;45.82
75945;BME280;64628;50.104;14.614;2022-12-10T11:52:34;97631.14;;;4.94;46.26
75945;BME280;64628;50.104;14.614;2022-12-10T11:55:01;97629.88;;;5.12;46.38
75945;BME280;64628;50.104;14.614;2022-12-10T11:57:19;97630.90;;;4.82;46.83
75945;BME280;64628;50.104;14.614;2022-12-10T11:59:44;97633.60;;;4.67;46.69
75945;BME280;64628;50.104;14.614;2022-12-10T12:02:20;97628.14;;;4.58;46.82
75945;BME280;64628;50.104;14.614;2022-12-10T12:04:41;97629.02;;;4.57;47.44
75945;BME280;64628;50.104;14.614;2022-12-10T12:07:07;97634.12;;;4.88;47.02
75945;BME280;64628;50.104;14.614;2022-12-10T12:09:28;97634.13;;;4.84;47.00
75945;BME280;64628;50.104;14.614;2022-12-10T12:11:56;97629.16;;;4.81;47.03
75945;BME280;64628;50.104;14.614;2022-12-10T12:14:19;97627.00;;;4.78;46.93
75945;BME280;64628;50.104;14.614;2022-12-10T12:16:43;97628.11;;;4.53;46.61
75945;BME280;64628;50.104;14.614;2022-12-10T12:19:11;97626.20;;;4.47;46.94
75945;BME280;64628;50.104;14.614;2022-12-10T12:21:30;97622.62;;;4.65;46.60
75945;BME280;64628;50.104;14.614;2022-12-10T12:23:59;97615.64;;;4.78;46.32
75945;BME280;64628;50.104;14.614;2022-12-10T12:26:27;97609.53;;;4.54;46.33
75945;BME280;64628;50.104;14.614;2022-12-10T12:28:52;97609.47;;;4.30;46.25
75945;BME280;64628;50.104;14.614;2022-12-10T12:31:16;97600.31;;;5.02;46.37
75945;BME280;64628;50.104;14.614;2022-12-10T12:33:43;97598.94;;;5.01;46.42
75945;BME280;64628;50.104;14.614;2022-12-10T12:36:09;97602.06;;;4.64;46.32
75945;BME280;64628;50.104;14.614;2022-12-10T12:38:31;97611.48;;;4.92;47.03
75945;BME280;64628;50.104;14.614;2022-12-10T12:40:59;97616.95;;;4.82;46.87
75945;BME280;64628;50.104;14.614;2022-12-10T12:43:25;97617.22;;;4.97;46.41
75945;BME280;64628;50.104;14.614;2022-12-10T12:45:49;97621.20;;;4.65;47.22
75945;BME280;64628;50.104;14.614;2022-12-10T12:48:19;97607.68;;;5.13;46.59
75945;BME280;64628;50.104;14.614;2022-12-10T12:50:43;97602.69;;;4.84;46.44
75945;BME280;64628;50.104;14.614;2022-12-10T12:53:04;97602.85;;;4.48;46.77
75945;BME280;64628;50.104;14.614;2022-12-10T12:55:34;97601.39;;;4.71;46.88
75945;BME280;64628;50.104;14.614;2022-12-10T12:57:56;97602.52;;;4.64;47.03